Time;durP1;ratioP1;P1;durP2;ratioP2;P2;SDS_P1;SDS_P2;PMS_P1;PMS_P2;Temp;Humidity;BMP_temperature;BMP_pressure;BME280_temperature;BME280_humidity;BME280_pressure;Samples;Min_cycle;Max_cycle;Signal;HPM_P1;HPM_P2
2022/09/17 00:02:24;;;;;;;1.87;0.90;;;;;;;;;;616823;230;26622;-63
2022/09/17 00:04:53;;;;;;;1.58;1.02;;;;;;;;;;616409;231;26566;-62
2022/09/17 00:07:22;;;;;;;1.05;0.95;;;;;;;;;;619492;231;26583;-63
2022/09/17 00:09:50;;;;;;;1.55;0.90;;;;;;;;;;616242;232;26804;-63
2022/09/17 00:12:19;;;;;;;2.33;1.20;;;;;;;;;;615606;231;26599;-63
2022/09/17 00:14:48;;;;;;;1.90;1.02;;;;;;;;;;614540;233;26793;-61
2022/09/17 00:17:17;;;;;;;2.65;1.30;;;;;;;;;;612876;233;26569;-62
2022/09/17 00:19:46;;;;;;;2.95;1.20;;;;;;;;;;616893;231;26606;-62
2022/09/17 00:22:15;;;;;;;1.83;0.93;;;;;;;;;;621284;231;26578;-62
2022/09/17 00:24:43;;;;;;;2.05;1.10;;;;;;;;;;620752;230;26564;-62
2022/09/17 00:27:12;;;;;;;2.50;1.48;;;;;;;;;;613548;231;26627;-62
2022/09/17 00:29:41;;;;;;;2.60;1.08;;;;;;;;;;613608;231;26577;-62
2022/09/17 00:32:10;;;;;;;2.58;1.10;;;;;;;;;;622182;230;26824;-62
2022/09/17 00:34:39;;;;;;;2.60;1.23;;;;;;;;;;620854;230;26571;-62
2022/09/17 00:37:08;;;;;;;4.68;1.33;;;;;;;;;;613924;231;26917;-61
2022/09/17 00:39:37;;;;;;;8.15;1.58;;;;;;;;;;616586;231;26611;-60
2022/09/17 00:42:09;;;;;;;6.43;1.80;;;;;;;;;;616491;231;26592;-60
2022/09/17 00:44:38;;;;;;;1.98;1.20;;;;;;;;;;613560;231;26835;-60
2022/09/17 00:47:08;;;;;;;3.92;1.40;;;;;;;;;;615199;231;26624;-60
2022/09/17 00:49:37;;;;;;;2.20;1.12;;;;;;;;;;616401;231;26824;-60
2022/09/17 00:52:05;;;;;;;3.12;1.37;;;;;;;;;;616228;231;26576;-60
2022/09/17 00:54:34;;;;;;;0.90;0.90;;;;;;;;;;612958;231;26626;-60
2022/09/17 00:57:03;;;;;;;1.83;1.12;;;;;;;;;;612534;234;26540;-60
2022/09/17 00:59:32;;;;;;;2.10;1.30;;;;;;;;;;613652;231;26576;-60
2022/09/17 01:02:01;;;;;;;3.53;1.20;;;;;;;;;;619445;231;26858;-60
2022/09/17 01:04:30;;;;;;;2.35;1.35;;;;;;;;;;618619;231;26546;-60
2022/09/17 01:07:15;;;;;;;2.45;1.37;;;;;;;;;;615482;231;26814;-60
2022/09/17 01:09:50;;;;;;;1.67;1.50;;;;;;;;;;609526;229;27053;-60
2022/09/17 01:12:25;;;;;;;1.37;1.15;;;;;;;;;;616909;231;26605;-60
2022/09/17 01:14:56;;;;;;;3.10;1.17;;;;;;;;;;614756;231;26625;-60
2022/09/17 01:17:26;;;;;;;2.45;1.40;;;;;;;;;;613995;233;26584;-60
2022/09/17 01:19:56;;;;;;;2.70;1.25;;;;;;;;;;612845;231;26615;-60
2022/09/17 01:22:25;;;;;;;3.10;1.30;;;;;;;;;;619569;230;26632;-60
2022/09/17 01:25:00;;;;;;;2.72;1.17;;;;;;;;;;621225;230;26616;-60
2022/09/17 01:27:39;;;;;;;2.30;1.25;;;;;;;;;;620212;230;26626;-60
2022/09/17 01:30:13;;;;;;;2.33;1.30;;;;;;;;;;616673;230;26616;-61
2022/09/17 01:32:42;;;;;;;3.83;1.17;;;;;;;;;;615490;231;26813;-60
2022/09/17 01:35:15;;;;;;;5.90;1.70;;;;;;;;;;622882;230;26586;-60
2022/09/17 01:37:59;;;;;;;3.20;1.37;;;;;;;;;;617401;230;26579;-60
2022/09/17 01:40:34;;;;;;;2.42;1.20;;;;;;;;;;615280;231;26818;-60
2022/09/17 01:43:04;;;;;;;2.42;1.17;;;;;;;;;;612826;231;26679;-60
2022/09/17 01:45:38;;;;;;;2.97;1.23;;;;;;;;;;613082;231;26817;-60
2022/09/17 01:48:06;;;;;;;2.15;1.10;;;;;;;;;;613831;234;26586;-60
2022/09/17 01:50:36;;;;;;;2.25;1.10;;;;;;;;;;620996;231;26616;-60
2022/09/17 01:53:05;;;;;;;3.08;1.45;;;;;;;;;;621063;231;26848;-60
2022/09/17 01:55:34;;;;;;;1.50;1.05;;;;;;;;;;621070;231;26611;-60
2022/09/17 01:58:03;;;;;;;2.95;1.27;;;;;;;;;;619283;231;26628;-60
2022/09/17 02:00:31;;;;;;;1.65;1.08;;;;;;;;;;615022;231;26554;-60
2022/09/17 02:03:00;;;;;;;1.60;0.90;;;;;;;;;;612487;235;26591;-60
2022/09/17 02:05:34;;;;;;;1.65;1.25;;;;;;;;;;612510;231;26620;-60
2022/09/17 02:08:05;;;;;;;1.25;1.08;;;;;;;;;;614072;231;26639;-60
2022/09/17 02:10:33;;;;;;;2.20;1.10;;;;;;;;;;614053;231;26569;-60
2022/09/17 02:13:02;;;;;;;2.92;1.30;;;;;;;;;;615196;234;26576;-60
2022/09/17 02:15:32;;;;;;;4.10;1.20;;;;;;;;;;613420;231;26573;-60
2022/09/17 02:18:06;;;;;;;2.22;1.15;;;;;;;;;;612392;234;26829;-60
2022/09/17 02:20:35;;;;;;;2.40;1.12;;;;;;;;;;615355;231;26612;-60
2022/09/17 02:23:03;;;;;;;1.45;1.20;;;;;;;;;;622618;229;26573;-60
2022/09/17 02:25:33;;;;;;;2.22;1.30;;;;;;;;;;615924;230;26891;-60
2022/09/17 02:28:02;;;;;;;4.15;1.12;;;;;;;;;;618834;230;26559;-60
2022/09/17 02:30:31;;;;;;;2.08;1.10;;;;;;;;;;616798;230;26951;-60
2022/09/17 02:33:00;;;;;;;1.25;1.02;;;;;;;;;;614644;233;26595;-60
2022/09/17 02:35:29;;;;;;;2.37;1.10;;;;;;;;;;616216;233;26564;-60
2022/09/17 02:37:58;;;;;;;3.62;0.95;;;;;;;;;;615958;231;26563;-61
2022/09/17 02:40:27;;;;;;;3.30;1.25;;;;;;;;;;618046;230;26628;-60
2022/09/17 02:43:01;;;;;;;2.65;1.00;;;;;;;;;;619755;230;26600;-60
2022/09/17 02:45:31;;;;;;;1.48;1.10;;;;;;;;;;612746;233;26573;-60
2022/09/17 02:48:00;;;;;;;2.35;1.20;;;;;;;;;;612494;234;26581;-60
2022/09/17 02:50:37;;;;;;;3.42;1.23;;;;;;;;;;614518;231;26565;-61
2022/09/17 02:53:08;;;;;;;1.75;1.20;;;;;;;;;;620728;231;27290;-60
2022/09/17 02:55:37;;;;;;;1.30;1.20;;;;;;;;;;613211;231;26815;-60
2022/09/17 02:58:08;;;;;;;1.55;1.00;;;;;;;;;;613772;231;26558;-60
2022/09/17 03:00:37;;;;;;;2.22;1.15;;;;;;;;;;618289;231;26630;-60
2022/09/17 03:03:05;;;;;;;1.62;1.02;;;;;;;;;;613448;234;26621;-60
2022/09/17 03:05:34;;;;;;;2.72;1.33;;;;;;;;;;615636;234;26537;-60
2022/09/17 03:08:03;;;;;;;1.83;1.23;;;;;;;;;;615745;234;26812;-60
2022/09/17 03:10:32;;;;;;;1.85;1.02;;;;;;;;;;613935;228;26524;-60
2022/09/17 03:13:01;;;;;;;1.90;1.00;;;;;;;;;;614466;234;26990;-60
2022/09/17 03:15:30;;;;;;;1.55;0.95;;;;;;;;;;618897;231;26555;-60
2022/09/17 03:17:58;;;;;;;2.53;1.20;;;;;;;;;;620937;226;26813;-60
2022/09/17 03:20:27;;;;;;;2.50;1.00;;;;;;;;;;613045;231;26631;-60
2022/09/17 03:22:56;;;;;;;2.60;1.27;;;;;;;;;;613844;234;26627;-60
2022/09/17 03:25:25;;;;;;;2.17;1.00;;;;;;;;;;615634;234;26686;-60
2022/09/17 03:27:55;;;;;;;2.97;1.23;;;;;;;;;;618658;231;26560;-60
2022/09/17 03:30:26;;;;;;;2.35;1.10;;;;;;;;;;613080;231;26589;-60
2022/09/17 03:32:55;;;;;;;1.92;1.10;;;;;;;;;;615764;231;26601;-60
2022/09/17 03:35:24;;;;;;;2.20;1.40;;;;;;;;;;623755;230;26595;-60
2022/09/17 03:37:52;;;;;;;2.42;1.35;;;;;;;;;;617009;230;27267;-60
2022/09/17 03:40:21;;;;;;;3.60;1.20;;;;;;;;;;613577;233;26562;-60
2022/09/17 03:42:50;;;;;;;3.50;1.33;;;;;;;;;;613310;231;26842;-60
2022/09/17 03:45:19;;;;;;;2.60;1.30;;;;;;;;;;615426;233;26571;-60
2022/09/17 03:47:48;;;;;;;3.40;1.10;;;;;;;;;;620658;230;26618;-60
2022/09/17 03:50:17;;;;;;;2.70;1.25;;;;;;;;;;621791;230;26611;-60
2022/09/17 03:52:45;;;;;;;1.37;1.00;;;;;;;;;;621409;231;26590;-60
2022/09/17 03:55:16;;;;;;;2.62;1.30;;;;;;;;;;620787;230;26566;-60
2022/09/17 03:57:43;;;;;;;2.25;1.10;;;;;;;;;;615804;233;26620;-60
2022/09/17 04:00:16;;;;;;;3.95;1.20;;;;;;;;;;615883;231;26820;-60
2022/09/17 04:02:42;;;;;;;1.73;1.10;;;;;;;;;;620064;231;26638;-60
2022/09/17 04:05:10;;;;;;;2.62;1.37;;;;;;;;;;615889;233;26838;-61
2022/09/17 04:07:39;;;;;;;3.47;1.52;;;;;;;;;;619545;230;26555;-60
2022/09/17 04:10:08;;;;;;;3.78;1.45;;;;;;;;;;615400;231;26821;-60
2022/09/17 04:12:37;;;;;;;2.95;1.73;;;;;;;;;;612449;234;26651;-60
2022/09/17 04:15:06;;;;;;;3.08;1.25;;;;;;;;;;612532;231;26621;-60
2022/09/17 04:17:35;;;;;;;3.05;1.30;;;;;;;;;;613753;231;26584;-60
2022/09/17 04:20:05;;;;;;;1.85;1.08;;;;;;;;;;614440;231;26821;-60
2022/09/17 04:22:32;;;;;;;2.08;1.15;;;;;;;;;;616250;231;26654;-60
2022/09/17 04:25:01;;;;;;;3.03;1.52;;;;;;;;;;617482;231;26584;-60
2022/09/17 04:27:30;;;;;;;3.50;1.42;;;;;;;;;;615588;234;26558;-60
2022/09/17 04:30:00;;;;;;;1.85;1.15;;;;;;;;;;619751;231;26581;-60
2022/09/17 04:32:28;;;;;;;1.27;1.15;;;;;;;;;;615314;231;26581;-60
2022/09/17 04:34:57;;;;;;;2.45;1.30;;;;;;;;;;615626;234;26540;-60
2022/09/17 04:37:26;;;;;;;4.05;1.50;;;;;;;;;;615811;231;26840;-60
2022/09/17 04:39:54;;;;;;;5.30;1.67;;;;;;;;;;614743;231;26628;-63
2022/09/17 04:42:23;;;;;;;7.12;1.80;;;;;;;;;;616944;231;27300;-60
2022/09/17 04:44:52;;;;;;;3.33;1.27;;;;;;;;;;622419;229;26614;-60
2022/09/17 04:47:21;;;;;;;3.60;1.50;;;;;;;;;;621913;230;26617;-60
2022/09/17 04:49:50;;;;;;;1.65;1.15;;;;;;;;;;613431;233;26566;-61
2022/09/17 04:52:19;;;;;;;2.87;1.40;;;;;;;;;;617359;231;26586;-60
2022/09/17 04:54:47;;;;;;;2.75;1.30;;;;;;;;;;613698;231;26609;-60
2022/09/17 04:57:17;;;;;;;2.53;1.40;;;;;;;;;;616445;231;26576;-60
2022/09/17 04:59:46;;;;;;;3.28;1.50;;;;;;;;;;617247;231;26803;-60
2022/09/17 05:02:15;;;;;;;3.15;1.50;;;;;;;;;;616119;233;26563;-60
2022/09/17 05:04:44;;;;;;;3.67;1.40;;;;;;;;;;615639;233;26666;-60
2022/09/17 05:07:12;;;;;;;2.97;1.30;;;;;;;;;;615957;233;26601;-60
2022/09/17 05:09:41;;;;;;;3.10;1.50;;;;;;;;;;613993;233;26616;-60
2022/09/17 05:12:11;;;;;;;3.37;1.23;;;;;;;;;;621919;231;26597;-60
2022/09/17 05:14:40;;;;;;;2.28;1.10;;;;;;;;;;617307;231;26623;-60
2022/09/17 05:17:08;;;;;;;2.33;1.30;;;;;;;;;;616940;231;26620;-60
2022/09/17 05:19:37;;;;;;;3.42;1.45;;;;;;;;;;618185;231;26807;-60
2022/09/17 05:22:06;;;;;;;1.67;1.10;;;;;;;;;;615576;231;26617;-60
2022/09/17 05:24:38;;;;;;;1.95;1.12;;;;;;;;;;616198;231;26814;-60
2022/09/17 05:27:04;;;;;;;3.30;1.52;;;;;;;;;;616346;231;26531;-60
2022/09/17 05:29:33;;;;;;;1.87;1.15;;;;;;;;;;619121;227;26584;-60
2022/09/17 05:32:02;;;;;;;2.87;1.35;;;;;;;;;;615604;233;26572;-60
2022/09/17 05:34:30;;;;;;;2.42;1.37;;;;;;;;;;617518;231;26555;-60
2022/09/17 05:36:59;;;;;;;2.60;1.45;;;;;;;;;;615231;231;27099;-60
2022/09/17 05:39:28;;;;;;;1.98;1.27;;;;;;;;;;613019;234;26576;-60
2022/09/17 05:41:57;;;;;;;2.67;1.25;;;;;;;;;;615575;234;26842;-60
2022/09/17 05:44:26;;;;;;;3.80;1.58;;;;;;;;;;615394;231;26573;-61
2022/09/17 05:46:55;;;;;;;3.55;1.45;;;;;;;;;;615670;234;26541;-61
2022/09/17 05:49:23;;;;;;;2.97;1.55;;;;;;;;;;613754;231;26572;-61
2022/09/17 05:51:52;;;;;;;3.58;1.20;;;;;;;;;;617443;231;26580;-61
2022/09/17 05:54:21;;;;;;;3.00;1.45;;;;;;;;;;616938;231;26548;-61
2022/09/17 05:56:52;;;;;;;3.42;1.30;;;;;;;;;;613557;232;26616;-61
2022/09/17 05:59:21;;;;;;;3.17;1.30;;;;;;;;;;613949;233;26848;-61
2022/09/17 06:01:50;;;;;;;2.08;1.37;;;;;;;;;;613934;231;26804;-61
2022/09/17 06:04:19;;;;;;;2.53;1.37;;;;;;;;;;614052;231;26571;-63
2022/09/17 06:06:48;;;;;;;1.65;1.20;;;;;;;;;;615900;229;26625;-60
2022/09/17 06:09:17;;;;;;;2.67;1.60;;;;;;;;;;613588;231;26630;-60
2022/09/17 06:11:46;;;;;;;2.53;1.27;;;;;;;;;;617766;230;26623;-60
2022/09/17 06:14:15;;;;;;;2.42;1.52;;;;;;;;;;619296;228;26804;-59
2022/09/17 06:16:44;;;;;;;3.90;1.40;;;;;;;;;;612854;231;26560;-61
2022/09/17 06:19:13;;;;;;;1.62;1.12;;;;;;;;;;613633;230;26619;-61
2022/09/17 06:21:42;;;;;;;3.67;1.52;;;;;;;;;;617368;231;26766;-61
2022/09/17 06:24:10;;;;;;;4.07;1.67;;;;;;;;;;613823;231;26571;-61
2022/09/17 06:26:39;;;;;;;1.98;1.30;;;;;;;;;;618237;231;26581;-61
2022/09/17 06:29:08;;;;;;;2.35;1.45;;;;;;;;;;615929;231;26620;-60
2022/09/17 06:31:37;;;;;;;3.53;1.55;;;;;;;;;;615043;231;26834;-60
2022/09/17 06:34:06;;;;;;;3.87;1.60;;;;;;;;;;618302;231;26566;-61
2022/09/17 06:36:35;;;;;;;3.15;1.55;;;;;;;;;;619452;231;26852;-61
2022/09/17 06:39:03;;;;;;;3.60;1.67;;;;;;;;;;618577;231;26556;-61
2022/09/17 06:41:33;;;;;;;4.55;2.00;;;;;;;;;;614037;231;26578;-60
2022/09/17 06:44:02;;;;;;;5.30;1.70;;;;;;;;;;612426;234;26540;-61
2022/09/17 06:46:30;;;;;;;4.62;1.95;;;;;;;;;;620400;231;26931;-60
2022/09/17 06:48:59;;;;;;;4.47;1.98;;;;;;;;;;618638;231;26564;-61
2022/09/17 06:51:28;;;;;;;3.92;2.00;;;;;;;;;;617429;231;26550;-61
2022/09/17 06:53:57;;;;;;;5.95;1.92;;;;;;;;;;615308;231;26793;-60
2022/09/17 06:56:26;;;;;;;3.55;1.85;;;;;;;;;;612454;234;26665;-60
2022/09/17 06:58:55;;;;;;;4.68;2.03;;;;;;;;;;614458;231;26622;-60
2022/09/17 07:01:24;;;;;;;3.92;1.83;;;;;;;;;;612469;231;26636;-60
2022/09/17 07:03:53;;;;;;;5.10;2.10;;;;;;;;;;614417;231;26604;-61
2022/09/17 07:06:22;;;;;;;4.78;1.90;;;;;;;;;;620512;231;26573;-61
2022/09/17 07:08:51;;;;;;;5.07;1.85;;;;;;;;;;618090;229;27293;-61
2022/09/17 07:11:20;;;;;;;4.80;2.12;;;;;;;;;;620711;231;26616;-61
2022/09/17 07:13:48;;;;;;;3.92;2.00;;;;;;;;;;618857;231;26822;-61
2022/09/17 07:16:18;;;;;;;3.75;2.30;;;;;;;;;;614252;231;26574;-61
2022/09/17 07:18:46;;;;;;;5.12;2.55;;;;;;;;;;613167;233;26581;-61
2022/09/17 07:21:15;;;;;;;5.60;2.17;;;;;;;;;;613372;231;26662;-61
2022/09/17 07:23:44;;;;;;;5.97;2.22;;;;;;;;;;614802;230;26578;-61
2022/09/17 07:26:13;;;;;;;6.60;2.28;;;;;;;;;;620881;231;26979;-61
2022/09/17 07:28:42;;;;;;;5.20;1.98;;;;;;;;;;619671;231;26852;-60
2022/09/17 07:31:11;;;;;;;5.68;2.08;;;;;;;;;;618132;231;26581;-60
2022/09/17 07:33:40;;;;;;;8.30;2.40;;;;;;;;;;618749;231;26602;-60
2022/09/17 07:36:10;;;;;;;5.95;2.65;;;;;;;;;;612884;231;26587;-60
2022/09/17 07:38:39;;;;;;;5.28;2.15;;;;;;;;;;613979;231;27406;-60
2022/09/17 07:41:11;;;;;;;5.25;2.17;;;;;;;;;;621365;231;26553;-60
2022/09/17 07:43:38;;;;;;;6.18;2.55;;;;;;;;;;618332;231;26618;-60
2022/09/17 07:46:07;;;;;;;7.07;2.42;;;;;;;;;;617148;231;26805;-60
2022/09/17 07:48:36;;;;;;;6.28;2.40;;;;;;;;;;614131;228;26582;-60
2022/09/17 07:51:05;;;;;;;7.87;2.80;;;;;;;;;;615127;231;26789;-60
2022/09/17 07:53:34;;;;;;;6.05;2.33;;;;;;;;;;614044;233;26614;-60
2022/09/17 07:56:03;;;;;;;6.45;2.45;;;;;;;;;;619397;231;26833;-60
2022/09/17 07:58:32;;;;;;;7.07;2.58;;;;;;;;;;613058;231;26581;-60
2022/09/17 08:01:03;;;;;;;6.03;2.30;;;;;;;;;;614935;231;26585;-61
2022/09/17 08:03:32;;;;;;;8.07;2.35;;;;;;;;;;613798;231;26805;-61
2022/09/17 08:06:06;;;;;;;9.52;2.60;;;;;;;;;;620572;231;26620;-62
2022/09/17 08:08:35;;;;;;;7.90;2.58;;;;;;;;;;616831;231;26921;-69
2022/09/17 08:11:05;;;;;;;6.12;2.25;;;;;;;;;;621870;231;26594;-69
2022/09/17 08:13:34;;;;;;;7.20;2.50;;;;;;;;;;615726;230;26578;-70
2022/09/17 08:16:04;;;;;;;7.18;2.15;;;;;;;;;;614519;231;26533;-69
2022/09/17 08:18:32;;;;;;;5.62;2.20;;;;;;;;;;615997;234;26542;-69
2022/09/17 08:21:01;;;;;;;5.72;2.17;;;;;;;;;;617366;230;26770;-69
2022/09/17 08:23:30;;;;;;;5.20;2.20;;;;;;;;;;619022;231;26619;-69
2022/09/17 08:25:59;;;;;;;7.25;2.17;;;;;;;;;;616294;232;26762;-70
2022/09/17 08:28:27;;;;;;;6.80;2.50;;;;;;;;;;615086;233;26572;-70
2022/09/17 08:30:59;;;;;;;7.78;2.47;;;;;;;;;;617744;231;26579;-70
2022/09/17 08:33:31;;;;;;;6.28;2.37;;;;;;;;;;613050;233;26659;-71
2022/09/17 08:36:00;;;;;;;6.25;2.58;;;;;;;;;;614073;230;26817;-70
2022/09/17 08:38:28;;;;;;;5.62;2.00;;;;;;;;;;613641;233;26621;-70
2022/09/17 08:41:13;;;;;;;5.68;1.95;;;;;;;;;;614566;233;26862;-70
2022/09/17 08:43:42;;;;;;;13.35;3.00;;;;;;;;;;611920;230;26862;-67
2022/09/17 08:46:11;;;;;;;28.80;3.55;;;;;;;;;;613662;233;27139;-68
2022/09/17 08:48:55;;;;;;;19.40;3.08;;;;;;;;;;619100;231;26567;-68
2022/09/17 08:51:24;;;;;;;5.25;1.92;;;;;;;;;;614194;231;26626;-69
2022/09/17 08:54:08;;;;;;;9.93;2.50;;;;;;;;;;613721;231;26991;-68
2022/09/17 08:56:37;;;;;;;10.93;2.12;;;;;;;;;;617110;231;27132;-69
2022/09/17 08:59:07;;;;;;;7.32;2.55;;;;;;;;;;621962;231;26615;-69
2022/09/17 09:01:39;;;;;;;7.53;2.47;;;;;;;;;;622930;231;26564;-68
2022/09/17 09:04:18;;;;;;;6.32;2.25;;;;;;;;;;617654;231;27297;-68
2022/09/17 09:06:46;;;;;;;6.65;2.67;;;;;;;;;;613782;231;26609;-68
2022/09/17 09:09:15;;;;;;;5.80;2.05;;;;;;;;;;619937;231;26555;-68
2022/09/17 09:11:44;;;;;;;5.85;2.03;;;;;;;;;;614728;234;26566;-68
2022/09/17 09:14:12;;;;;;;9.57;2.83;;;;;;;;;;615846;231;26611;-68
2022/09/17 09:16:43;;;;;;;6.35;2.47;;;;;;;;;;615643;231;26620;-68
2022/09/17 09:19:20;;;;;;;8.45;2.30;;;;;;;;;;615031;231;26825;-68
2022/09/17 09:21:50;;;;;;;8.05;2.17;;;;;;;;;;616947;231;26802;-68
2022/09/17 09:24:21;;;;;;;7.75;2.70;;;;;;;;;;616435;230;26792;-68
2022/09/17 09:26:53;;;;;;;11.48;2.40;;;;;;;;;;615359;231;26580;-68
2022/09/17 09:29:23;;;;;;;6.50;2.45;;;;;;;;;;614585;234;26560;-68
2022/09/17 09:31:57;;;;;;;7.90;2.60;;;;;;;;;;614652;230;26637;-68
2022/09/17 09:34:26;;;;;;;6.00;2.12;;;;;;;;;;617027;230;26632;-65
2022/09/17 09:36:55;;;;;;;7.53;2.45;;;;;;;;;;616761;230;26559;-67
2022/09/17 09:39:24;;;;;;;15.40;2.50;;;;;;;;;;621560;231;26881;-67
2022/09/17 09:41:53;;;;;;;6.37;2.33;;;;;;;;;;621351;231;26554;-68
2022/09/17 09:44:22;;;;;;;9.23;2.72;;;;;;;;;;617762;230;26653;-68
2022/09/17 09:46:57;;;;;;;6.28;2.58;;;;;;;;;;619714;230;26839;-69
2022/09/17 09:49:37;;;;;;;5.62;2.12;;;;;;;;;;616639;230;26936;-69
2022/09/17 09:52:18;;;;;;;12.75;2.50;;;;;;;;;;615929;230;26609;-68
2022/09/17 09:54:49;;;;;;;5.87;2.28;;;;;;;;;;617236;230;26576;-69
2022/09/17 09:57:18;;;;;;;4.78;2.15;;;;;;;;;;614428;230;26580;-69
2022/09/17 09:59:47;;;;;;;7.90;1.70;;;;;;;;;;614691;231;26805;-69
2022/09/17 10:02:16;;;;;;;5.47;2.55;;;;;;;;;;618600;230;26601;-69
2022/09/17 10:04:45;;;;;;;5.10;2.00;;;;;;;;;;615718;230;26562;-68
2022/09/17 10:07:14;;;;;;;6.82;2.17;;;;;;;;;;616017;228;26581;-68
2022/09/17 10:09:43;;;;;;;9.60;2.42;;;;;;;;;;613943;231;26568;-68
2022/09/17 10:12:14;;;;;;;4.53;1.95;;;;;;;;;;613804;231;27144;-68
2022/09/17 10:14:43;;;;;;;11.80;2.33;;;;;;;;;;615849;231;26824;-68
2022/09/17 10:17:18;;;;;;;6.60;2.22;;;;;;;;;;614533;231;26536;-68
2022/09/17 10:19:46;;;;;;;5.45;2.17;;;;;;;;;;623303;230;26555;-68
2022/09/17 10:22:17;;;;;;;6.97;2.25;;;;;;;;;;618266;231;26838;-67
2022/09/17 10:24:46;;;;;;;17.67;2.67;;;;;;;;;;614628;231;26540;-68
2022/09/17 10:27:15;;;;;;;9.45;2.00;;;;;;;;;;617336;231;26628;-70
2022/09/17 10:29:44;;;;;;;6.25;2.30;;;;;;;;;;617146;231;26638;-70
2022/09/17 10:32:14;;;;;;;5.60;2.08;;;;;;;;;;613488;231;26609;-70
2022/09/17 10:34:58;;;;;;;3.97;2.10;;;;;;;;;;614781;234;26588;-70
2022/09/17 10:37:32;;;;;;;5.90;1.95;;;;;;;;;;616697;231;26992;-70
2022/09/17 10:40:01;;;;;;;6.47;2.05;;;;;;;;;;617366;231;26580;-70
2022/09/17 10:42:30;;;;;;;9.15;2.50;;;;;;;;;;614463;226;26608;-70
2022/09/17 10:45:00;;;;;;;6.20;2.10;;;;;;;;;;620729;230;26647;-70
2022/09/17 10:47:28;;;;;;;5.20;2.00;;;;;;;;;;616629;230;26553;-70
2022/09/17 10:49:59;;;;;;;7.78;2.03;;;;;;;;;;617946;231;26561;-70
2022/09/17 10:52:28;;;;;;;5.45;2.17;;;;;;;;;;617845;229;26650;-70
2022/09/17 10:54:59;;;;;;;4.22;1.58;;;;;;;;;;617757;228;26532;-70
2022/09/17 10:57:33;;;;;;;6.10;2.20;;;;;;;;;;617036;231;26614;-70
2022/09/17 11:00:06;;;;;;;8.02;1.90;;;;;;;;;;616311;231;27286;-70
2022/09/17 11:02:42;;;;;;;5.00;2.12;;;;;;;;;;617538;230;26597;-70
2022/09/17 11:05:10;;;;;;;5.15;1.77;;;;;;;;;;620594;230;26780;-68
2022/09/17 11:07:43;;;;;;;6.25;1.98;;;;;;;;;;613918;231;26587;-68
2022/09/17 11:10:12;;;;;;;7.07;1.98;;;;;;;;;;615301;231;26799;-69
2022/09/17 11:13:00;;;;;;;4.43;2.12;;;;;;;;;;615868;231;26670;-69
2022/09/17 11:15:29;;;;;;;3.65;1.60;;;;;;;;;;616519;230;26575;-69
2022/09/17 11:17:58;;;;;;;6.43;1.95;;;;;;;;;;614976;230;26864;-69
2022/09/17 11:20:37;;;;;;;4.47;1.85;;;;;;;;;;613742;234;26572;-69
2022/09/17 11:23:12;;;;;;;6.18;2.10;;;;;;;;;;612549;234;26677;-69
2022/09/17 11:25:41;;;;;;;4.00;1.83;;;;;;;;;;615047;234;26593;-69
2022/09/17 11:28:13;;;;;;;5.55;1.98;;;;;;;;;;614650;231;26618;-68
2022/09/17 11:30:43;;;;;;;2.75;1.80;;;;;;;;;;614221;231;26573;-69
2022/09/17 11:33:14;;;;;;;3.17;1.70;;;;;;;;;;616168;231;26919;-69
2022/09/17 11:35:46;;;;;;;2.97;1.62;;;;;;;;;;617316;230;26538;-68
2022/09/17 11:38:17;;;;;;;4.93;1.80;;;;;;;;;;618608;231;26540;-69
2022/09/17 11:40:46;;;;;;;6.10;2.20;;;;;;;;;;614460;234;26548;-68
2022/09/17 11:43:21;;;;;;;11.48;2.17;;;;;;;;;;615094;234;26574;-67
2022/09/17 11:46:06;;;;;;;3.35;1.48;;;;;;;;;;614855;231;26609;-67
2022/09/17 11:48:41;;;;;;;6.03;1.98;;;;;;;;;;615282;231;26600;-66
2022/09/17 11:51:10;;;;;;;6.90;2.00;;;;;;;;;;614550;231;26817;-66
2022/09/17 11:53:41;;;;;;;6.20;1.67;;;;;;;;;;616338;229;26553;-66
2022/09/17 11:56:15;;;;;;;9.82;2.55;;;;;;;;;;619493;230;26806;-67
2022/09/17 11:58:44;;;;;;;7.35;1.85;;;;;;;;;;616184;229;26575;-66
2022/09/17 12:01:12;;;;;;;3.62;1.92;;;;;;;;;;614613;231;26570;-60
2022/09/17 12:03:41;;;;;;;5.40;1.85;;;;;;;;;;619537;231;26624;-60
2022/09/17 12:06:11;;;;;;;5.70;1.98;;;;;;;;;;621108;231;26636;-60
2022/09/17 12:08:55;;;;;;;9.02;1.87;;;;;;;;;;618608;230;26555;-60
2022/09/17 12:11:27;;;;;;;3.30;1.42;;;;;;;;;;618982;225;26587;-60
2022/09/17 12:13:56;;;;;;;4.65;1.48;;;;;;;;;;612327;233;26860;-60
2022/09/17 12:16:25;;;;;;;4.18;2.03;;;;;;;;;;615886;231;26581;-60
2022/09/17 12:18:56;;;;;;;6.45;1.50;;;;;;;;;;614254;230;26562;-60
2022/09/17 12:21:29;;;;;;;5.78;1.60;;;;;;;;;;618912;230;26821;-60
2022/09/17 12:23:58;;;;;;;4.32;1.58;;;;;;;;;;615127;231;26647;-60
2022/09/17 12:26:31;;;;;;;6.10;1.50;;;;;;;;;;618264;230;26581;-60
2022/09/17 12:29:00;;;;;;;5.40;1.80;;;;;;;;;;615455;231;26931;-60
2022/09/17 12:31:29;;;;;;;2.35;1.60;;;;;;;;;;614268;231;26588;-60
2022/09/17 12:33:58;;;;;;;4.22;1.50;;;;;;;;;;620958;231;26624;-60
2022/09/17 12:36:29;;;;;;;4.28;1.65;;;;;;;;;;616569;231;27034;-60
2022/09/17 12:39:01;;;;;;;3.78;1.80;;;;;;;;;;614898;231;26555;-61
2022/09/17 12:41:33;;;;;;;3.33;1.40;;;;;;;;;;613566;231;26585;-60
2022/09/17 12:44:03;;;;;;;3.12;1.62;;;;;;;;;;614324;231;26595;-62
2022/09/17 12:46:33;;;;;;;19.77;2.83;;;;;;;;;;614477;231;26564;-60
2022/09/17 12:49:20;;;;;;;9.95;1.80;;;;;;;;;;613751;231;26853;-60
2022/09/17 12:51:51;;;;;;;5.50;1.40;;;;;;;;;;613169;234;26564;-61
2022/09/17 12:54:20;;;;;;;6.53;1.42;;;;;;;;;;615015;231;26606;-61
2022/09/17 12:59:36;;;;;;;4.10;1.52;;;;;;;;;;622918;231;26566;-61
2022/09/17 13:02:08;;;;;;;6.12;2.08;;;;;;;;;;617696;231;26882;-60
2022/09/17 13:04:38;;;;;;;5.75;1.90;;;;;;;;;;616716;231;26629;-61
2022/09/17 13:07:14;;;;;;;3.78;1.58;;;;;;;;;;615623;229;26608;-61
2022/09/17 13:09:58;;;;;;;6.20;1.70;;;;;;;;;;620140;231;26574;-60
2022/09/17 13:12:26;;;;;;;4.72;1.60;;;;;;;;;;611465;233;26601;-60
2022/09/17 13:15:12;;;;;;;3.03;1.30;;;;;;;;;;614073;233;26573;-61
2022/09/17 13:17:41;;;;;;;4.43;1.50;;;;;;;;;;611973;235;26662;-60
2022/09/17 13:20:11;;;;;;;5.35;1.83;;;;;;;;;;613808;233;26803;-60
2022/09/17 13:22:42;;;;;;;4.78;1.45;;;;;;;;;;619356;231;27237;-60
2022/09/17 13:25:12;;;;;;;4.45;1.58;;;;;;;;;;614543;231;26564;-60
2022/09/17 13:27:40;;;;;;;2.92;1.40;;;;;;;;;;616632;231;26839;-60
2022/09/17 13:30:10;;;;;;;3.35;1.52;;;;;;;;;;621287;230;26562;-60
2022/09/17 13:32:42;;;;;;;3.20;1.40;;;;;;;;;;614041;233;26850;-60
2022/09/17 13:35:27;;;;;;;4.32;1.60;;;;;;;;;;615217;233;26645;-60
2022/09/17 13:37:56;;;;;;;2.72;1.25;;;;;;;;;;612819;231;26570;-60
2022/09/17 13:40:24;;;;;;;5.05;1.70;;;;;;;;;;616711;231;26875;-60
2022/09/17 13:42:54;;;;;;;2.83;1.20;;;;;;;;;;615328;231;26588;-60
2022/09/17 13:45:23;;;;;;;3.50;1.58;;;;;;;;;;619571;231;26648;-60
2022/09/17 13:47:52;;;;;;;2.28;1.45;;;;;;;;;;613143;234;26807;-60
2022/09/17 13:50:38;;;;;;;3.70;1.30;;;;;;;;;;618266;231;26542;-60
2022/09/17 13:53:25;;;;;;;5.00;1.65;;;;;;;;;;623091;231;26588;-60
2022/09/17 13:55:53;;;;;;;2.45;1.15;;;;;;;;;;612929;234;26915;-60
2022/09/17 13:58:22;;;;;;;1.75;1.27;;;;;;;;;;614152;234;26942;-60
2022/09/17 14:00:55;;;;;;;2.83;1.37;;;;;;;;;;614381;233;26553;-60
2022/09/17 14:03:43;;;;;;;2.50;1.50;;;;;;;;;;619982;231;26804;-60
2022/09/17 14:06:24;;;;;;;4.47;1.73;;;;;;;;;;612270;234;26545;-60
2022/09/17 14:08:56;;;;;;;2.22;1.30;;;;;;;;;;609118;233;26641;-61
2022/09/17 14:11:39;;;;;;;3.72;1.30;;;;;;;;;;619905;231;26641;-60
2022/09/17 14:14:26;;;;;;;4.00;1.45;;;;;;;;;;619829;231;26659;-60
2022/09/17 14:16:54;;;;;;;2.22;1.40;;;;;;;;;;609469;232;26655;-60
2022/09/17 14:19:24;;;;;;;4.05;1.65;;;;;;;;;;621548;230;26754;-60
2022/09/17 14:21:58;;;;;;;1.77;1.33;;;;;;;;;;621560;230;26794;-60
2022/09/17 14:24:25;;;;;;;2.67;1.30;;;;;;;;;;614635;233;26816;-60
2022/09/17 14:26:59;;;;;;;3.60;1.20;;;;;;;;;;615306;231;26554;-59
2022/09/17 14:29:32;;;;;;;3.55;1.80;;;;;;;;;;614314;231;26626;-60
2022/09/17 14:32:01;;;;;;;2.03;1.20;;;;;;;;;;618516;231;26653;-60
2022/09/17 14:34:30;;;;;;;2.40;1.30;;;;;;;;;;618500;231;26872;-59
2022/09/17 14:36:59;;;;;;;5.03;1.62;;;;;;;;;;622680;230;26624;-59
2022/09/17 14:39:28;;;;;;;4.72;1.60;;;;;;;;;;621313;230;27289;-59
2022/09/17 14:41:57;;;;;;;2.92;1.42;;;;;;;;;;619882;230;26619;-59
2022/09/17 14:44:26;;;;;;;3.95;1.50;;;;;;;;;;614071;233;26566;-59
2022/09/17 14:46:56;;;;;;;3.00;1.20;;;;;;;;;;613673;233;26575;-59
2022/09/17 14:49:26;;;;;;;4.18;1.40;;;;;;;;;;615757;230;26766;-59
2022/09/17 14:51:54;;;;;;;3.80;1.40;;;;;;;;;;620049;230;26761;-61
2022/09/17 14:54:26;;;;;;;20.02;2.28;;;;;;;;;;620792;230;26615;-60
2022/09/17 14:57:06;;;;;;;8.85;1.92;;;;;;;;;;616736;231;26569;-61
2022/09/17 14:59:36;;;;;;;11.65;2.30;;;;;;;;;;612759;231;26825;-60
2022/09/17 15:02:05;;;;;;;11.95;2.00;;;;;;;;;;615587;231;26892;-61
2022/09/17 15:04:34;;;;;;;12.73;1.77;;;;;;;;;;615292;231;26619;-60
2022/09/17 15:07:07;;;;;;;4.43;1.50;;;;;;;;;;618954;231;26879;-60